Sao Sebastiao Do Tocantins, Brazil
Current Conditions -  °F | °C
As of 11:00 AM on Wednesday 26 Nov 2014 (Local Time) from SBIZ Reporting Station
Broken Clouds Broken Clouds  
Wind Chill: 88°   Ceiling: 2000
Heat Index: 98°   Visibility: 6mi
Dew Point: 75°   Wind: 6mph
Humidity: 66%   Direction: 80°E
Pressure: 29.85"   Gusts: NA
Location:  5.26°S, 48.2°W
Report Text: SBIZ 261400Z 08005KT 9999 BKN020 31/24 Q1011
Loading
Personal Weather Stations






























Interactive Weather Map New forecast layout! Learn more

10-Day Weather Forecast

Advertisements
Track Severe Weather on mobile